Main page


Airports :

Abadan, Iran

Abadan-Ayatollah Jami International Airport

latitude: 30-22N, longitude: 048-15E, elevation: 3 m

Current weather observation

The report was made 58 minutes ago, at 09:00 UTC
Wind 14 kt from the Northwest
Temperature 25°C
Humidity 28%
Pressure 1013 hPa
Visibility 10 km or more
no clouds below 1500 m and no cumulonimbus

METAR: OIAA 180900Z 31014KT CAVOK 25/05 Q1013

Time: 13:28 (09:58 UTC)


The report was made 3 hours and 58 minutes ago, at 06:00 UTC
Forecast valid from 18 at 06 UTC to 19 at 12 UTC
Wind 6 kt from the Northwest
Visibility: 7000 m
from 18 at 07 UTC to 18 at 15 UTC
Wind 16 kt from the Northwest
Visibility: 4000 m

TAF: OIAA 180600Z 1806/1912 31003MPS 7000 NSC TEMPO 1807/1815 31008MPS 4000 DU/SA

Weather observations and forecasts of more than 4000 airports (METAR and TAF reports).

The available stations are represented by yellow and red dots on the map.

Hover mouse over dot to see the name of the station.

Then click to see weather observations and forecasts.

To change the map : click on the green buttons with a black cross to zoom in, on the green button with a dash to zoom out, or on the green arrows for adjacent maps.